createdAt,value
2023-03-07T02:41:40.585Z,9.52
2023-03-07T02:44:17.037Z,11.18
2023-03-07T02:46:45.106Z,9.75
2023-03-07T02:49:13.391Z,11.07
2023-03-07T02:51:41.116Z,10.82
2023-03-07T02:54:08.902Z,8.88
2023-03-07T02:56:36.669Z,8.32
2023-03-07T02:59:04.468Z,8.25
2023-03-07T03:01:32.284Z,7.88
2023-03-07T03:04:00.121Z,7.40
2023-03-07T03:06:27.746Z,7.47
2023-03-07T03:08:55.458Z,7.82
2023-03-07T03:11:23.289Z,7.40
2023-03-07T03:13:51.148Z,7.75
2023-03-07T03:16:18.837Z,7.35
2023-03-07T03:18:46.632Z,6.50
2023-03-07T03:21:15.250Z,6.25
2023-03-07T03:23:43.225Z,7.35
2023-03-07T03:26:11.896Z,6.53
2023-03-07T03:28:40.078Z,7.80
2023-03-07T03:31:10.695Z,6.90
2023-03-07T03:33:40.197Z,6.38
2023-03-07T03:36:10.841Z,8.48
2023-03-07T03:38:39.468Z,19.15
2023-03-07T03:41:11.911Z,8.70
2023-03-07T03:43:40.328Z,14.55
2023-03-07T03:46:08.241Z,11.50
2023-03-07T03:48:37.533Z,7.22
2023-03-07T03:51:07.018Z,12.50
2023-03-07T03:53:36.783Z,10.88
2023-03-07T03:56:16.262Z,10.57
2023-03-07T03:58:44.573Z,8.35
2023-03-07T04:01:12.823Z,8.88
2023-03-07T04:03:45.817Z,8.20
2023-03-07T04:06:42.720Z,9.30
2023-03-07T04:09:10.786Z,9.10
2023-03-07T04:11:42.272Z,8.90
2023-03-07T04:14:10.264Z,9.68
2023-03-07T04:16:38.368Z,8.15
2023-03-07T04:19:06.132Z,9.90
2023-03-07T04:21:33.789Z,8.10
2023-03-07T04:24:01.796Z,9.10
2023-03-07T04:26:31.769Z,8.65
2023-03-07T04:28:59.622Z,8.90
2023-03-07T04:31:31.803Z,7.15
2023-03-07T04:34:01.971Z,9.18
2023-03-07T04:36:30.240Z,8.95
2023-03-07T04:38:57.859Z,8.02
2023-03-07T04:41:29.114Z,8.55
2023-03-07T04:44:18.103Z,7.05
2023-03-07T04:46:45.882Z,6.32
2023-03-07T04:49:13.912Z,8.65
2023-03-07T04:51:43.950Z,7.88
2023-03-07T04:54:13.203Z,7.30
2023-03-07T04:56:41.850Z,7.70
2023-03-07T04:59:11.541Z,7.53
2023-03-07T05:01:39.525Z,7.25
2023-03-07T05:04:07.150Z,9.15
2023-03-07T05:06:34.924Z,6.80
2023-03-07T05:09:03.184Z,5.82
2023-03-07T05:11:30.998Z,6.50
2023-03-07T05:13:58.795Z,7.38
2023-03-07T05:16:27.424Z,7.97
2023-03-07T05:18:55.180Z,6.30
2023-03-07T05:21:22.977Z,8.05
2023-03-07T05:23:50.830Z,6.93
2023-03-07T05:26:18.679Z,6.15
2023-03-07T05:28:47.419Z,7.40
2023-03-07T05:31:16.420Z,7.40
2023-03-07T05:33:45.917Z,7.15
2023-03-07T05:36:15.392Z,7.68
2023-03-07T05:38:43.596Z,6.38
2023-03-07T05:41:11.419Z,7.95
2023-03-07T05:43:39.338Z,6.38
2023-03-07T05:46:07.342Z,6.57
2023-03-07T05:48:35.730Z,6.63
2023-03-07T05:51:03.361Z,7.72
2023-03-07T05:53:31.665Z,7.65
2023-03-07T05:55:59.687Z,7.63
2023-03-07T05:58:27.800Z,7.55
2023-03-07T06:00:55.486Z,6.50
2023-03-07T06:03:23.819Z,6.97
2023-03-07T06:05:51.971Z,6.97
2023-03-07T06:08:19.746Z,5.95
2023-03-07T06:10:54.796Z,6.15
2023-03-07T06:13:25.218Z,6.00
2023-03-07T06:15:54.413Z,7.60
2023-03-07T06:18:24.294Z,8.00
2023-03-07T06:20:59.625Z,5.85
2023-03-07T06:23:31.394Z,5.72
2023-03-07T06:25:59.730Z,5.80
2023-03-07T06:28:28.190Z,6.22
2023-03-07T06:30:56.054Z,6.75
2023-03-07T06:33:24.484Z,7.30
2023-03-07T06:35:52.291Z,6.57
2023-03-07T06:38:20.292Z,6.65
2023-03-07T06:40:55.528Z,6.05
2023-03-07T06:43:23.511Z,6.60
2023-03-07T06:45:51.455Z,5.80
2023-03-07T06:48:19.369Z,6.28
2023-03-07T06:50:47.394Z,6.50
2023-03-07T06:53:15.384Z,5.90
2023-03-07T06:55:43.206Z,5.82
2023-03-07T06:58:12.845Z,6.13
2023-03-07T07:00:40.873Z,6.00
2023-03-07T07:03:12.655Z,6.93
2023-03-07T07:05:40.830Z,7.55
2023-03-07T07:08:09.510Z,6.95
2023-03-07T07:10:37.429Z,6.45
2023-03-07T07:13:06.757Z,6.28
2023-03-07T07:15:34.660Z,4.75
2023-03-07T07:18:02.608Z,6.43
2023-03-07T07:20:34.675Z,5.78
2023-03-07T07:23:03.532Z,8.80
2023-03-07T07:25:31.418Z,5.45
2023-03-07T07:27:59.153Z,5.88
2023-03-07T07:30:29.766Z,5.47
2023-03-07T07:32:57.593Z,5.88
2023-03-07T07:35:25.535Z,5.20
2023-03-07T07:37:53.527Z,6.97
2023-03-07T07:40:21.339Z,4.78
2023-03-07T07:42:54.612Z,6.53
2023-03-07T07:45:49.228Z,5.90
2023-03-07T07:48:20.564Z,4.43
2023-03-07T07:50:48.868Z,5.65
2023-03-07T07:53:17.972Z,5.22
2023-03-07T07:55:47.502Z,5.15
2023-03-07T07:58:15.956Z,6.20
2023-03-07T08:00:43.764Z,5.38
2023-03-07T08:03:11.528Z,4.53
2023-03-07T08:05:48.700Z,4.32
2023-03-07T08:08:17.170Z,5.32
2023-03-07T08:10:48.473Z,5.43
2023-03-07T08:13:18.168Z,5.97
2023-03-07T08:15:46.095Z,4.45
2023-03-07T08:18:14.004Z,5.38
2023-03-07T08:20:41.887Z,4.07
2023-03-07T08:23:09.580Z,3.60
2023-03-07T08:25:37.521Z,5.68
2023-03-07T08:28:05.694Z,5.38
2023-03-07T08:30:35.216Z,3.78
2023-03-07T08:33:03.945Z,5.18
2023-03-07T08:35:32.084Z,4.90
2023-03-07T08:38:00.809Z,4.65
2023-03-07T08:40:30.291Z,4.45
2023-03-07T08:43:01.347Z,5.22
2023-03-07T08:45:29.131Z,4.53
2023-03-07T08:47:57.421Z,5.32
2023-03-07T08:50:27.897Z,4.50
2023-03-07T08:52:55.703Z,4.78
2023-03-07T08:55:23.670Z,5.32
2023-03-07T08:57:51.574Z,3.35
2023-03-07T09:00:19.772Z,4.35
2023-03-07T09:02:47.587Z,4.22
2023-03-07T09:05:15.468Z,3.53
2023-03-07T09:07:43.320Z,6.07
2023-03-07T09:10:11.989Z,4.35
2023-03-07T09:12:39.933Z,3.92
2023-03-07T09:15:08.789Z,2.35
2023-03-07T09:17:36.685Z,3.58
2023-03-07T09:20:06.279Z,3.15
2023-03-07T09:22:34.106Z,3.53
2023-03-07T09:25:01.745Z,4.45
2023-03-07T09:27:29.588Z,3.97
2023-03-07T09:29:57.279Z,5.38
2023-03-07T09:32:25.165Z,3.83
2023-03-07T09:34:53.540Z,3.72
2023-03-07T09:37:21.306Z,3.28
2023-03-07T09:39:50.454Z,3.75
2023-03-07T09:42:27.410Z,3.78
2023-03-07T09:45:15.618Z,3.63
2023-03-07T09:48:11.812Z,4.50
2023-03-07T09:50:54.105Z,4.05
2023-03-07T09:53:50.161Z,3.92
2023-03-07T09:56:38.066Z,3.97
2023-03-07T09:59:22.698Z,4.05
2023-03-07T10:01:56.049Z,3.13
2023-03-07T10:04:33.421Z,2.95
2023-03-07T10:07:02.662Z,3.33
2023-03-07T10:09:30.359Z,3.28
2023-03-07T10:12:04.991Z,3.50
2023-03-07T10:14:52.345Z,3.88
2023-03-07T10:17:24.744Z,2.80
2023-03-07T10:20:18.951Z,3.85
2023-03-07T10:22:54.212Z,4.00
2023-03-07T10:25:25.688Z,2.60
2023-03-07T10:28:00.952Z,3.57
2023-03-07T10:30:32.395Z,3.88
2023-03-07T10:33:01.449Z,3.83
2023-03-07T10:35:57.489Z,4.93
2023-03-07T10:38:44.385Z,3.33
2023-03-07T10:41:15.776Z,2.40
2023-03-07T10:43:45.224Z,3.30
2023-03-07T10:46:25.250Z,2.35
2023-03-07T10:48:55.766Z,3.35
2023-03-07T10:51:41.648Z,2.42
2023-03-07T10:54:15.330Z,2.40
2023-03-07T10:57:08.693Z,3.08
2023-03-07T10:59:38.223Z,2.97
2023-03-07T11:02:41.136Z,2.60
2023-03-07T11:07:59.933Z,2.97
2023-03-07T11:10:34.988Z,2.83
2023-03-07T11:13:16.885Z,2.05
2023-03-07T11:15:45.572Z,2.72
2023-03-07T11:18:26.772Z,3.13
2023-03-07T11:20:54.741Z,4.05
2023-03-07T11:23:32.489Z,2.50
2023-03-07T11:26:21.175Z,3.65
2023-03-07T11:29:07.712Z,3.20
2023-03-07T11:32:05.645Z,2.88
2023-03-07T11:34:42.893Z,2.17
2023-03-07T11:37:19.111Z,2.13
2023-03-07T11:40:08.217Z,2.20
2023-03-07T11:42:52.081Z,3.28
2023-03-07T11:45:32.345Z,2.25
2023-03-07T11:48:12.432Z,2.83
2023-03-07T11:50:43.160Z,2.90
2023-03-07T11:53:20.576Z,2.50
2023-03-07T11:55:48.342Z,2.90
2023-03-07T11:58:49.969Z,2.38
2023-03-07T12:01:54.612Z,2.28
2023-03-07T12:04:54.658Z,1.63
2023-03-07T12:07:43.870Z,2.17
2023-03-07T12:10:53.495Z,3.90
2023-03-07T12:13:39.317Z,1.77
2023-03-07T12:16:09.993Z,2.58
2023-03-07T12:18:47.234Z,2.45
2023-03-07T12:21:33.504Z,2.63
2023-03-07T12:24:07.950Z,2.90
2023-03-07T12:26:54.497Z,3.13
2023-03-07T12:29:38.505Z,2.63
2023-03-07T12:32:19.091Z,1.92
2023-03-07T12:34:51.732Z,1.85
2023-03-07T12:37:25.687Z,1.63
2023-03-07T12:39:56.152Z,2.72
2023-03-07T12:42:59.450Z,2.78
2023-03-07T12:45:42.288Z,2.25
2023-03-07T12:48:49.613Z,2.15
2023-03-07T12:51:26.789Z,2.28
2023-03-07T12:54:10.711Z,1.98
2023-03-07T12:56:44.544Z,2.10
2023-03-07T12:59:14.185Z,1.98
2023-03-07T13:01:47.853Z,2.05
2023-03-07T13:04:32.431Z,2.90
2023-03-07T13:07:09.910Z,3.03
2023-03-07T13:09:40.668Z,1.25
2023-03-07T13:12:18.645Z,2.67
2023-03-07T13:14:53.978Z,2.45
2023-03-07T13:17:30.790Z,3.10
2023-03-07T13:20:00.046Z,2.20
2023-03-07T13:22:27.612Z,2.15
2023-03-07T13:24:56.843Z,1.75
2023-03-07T13:27:28.071Z,1.75
2023-03-07T13:30:23.555Z,2.28
2023-03-07T13:32:51.388Z,2.25
2023-03-07T13:35:31.078Z,2.75
2023-03-07T13:38:05.604Z,2.72
2023-03-07T13:40:36.309Z,2.05
2023-03-07T13:43:19.437Z,1.85
2023-03-07T13:46:06.135Z,1.73
2023-03-07T13:48:35.938Z,2.33
2023-03-07T13:51:08.280Z,2.08
2023-03-07T13:56:11.095Z,1.92
2023-03-07T13:59:21.599Z,1.98
2023-03-07T14:01:57.985Z,1.90
2023-03-07T14:04:42.324Z,1.75
2023-03-07T14:07:20.909Z,2.40
2023-03-07T14:09:55.693Z,1.75
2023-03-07T14:12:58.201Z,2.80
2023-03-07T14:15:28.930Z,1.88
2023-03-07T14:18:19.676Z,1.85
2023-03-07T14:21:27.449Z,1.83
2023-03-07T14:24:28.525Z,1.95
2023-03-07T14:27:03.622Z,3.00
2023-03-07T14:29:31.657Z,2.70
2023-03-07T14:32:01.129Z,2.22
2023-03-07T14:34:33.379Z,1.60
2023-03-07T14:37:04.690Z,2.60
2023-03-07T14:39:58.653Z,2.03
2023-03-07T14:42:26.306Z,2.25
2023-03-07T14:45:03.128Z,2.60
2023-03-07T14:48:04.699Z,2.53
2023-03-07T14:50:33.309Z,3.25
2023-03-07T14:53:25.588Z,2.63
2023-03-07T14:55:54.943Z,2.70
2023-03-07T14:58:46.122Z,5.07
2023-03-07T15:01:16.427Z,2.38
2023-03-07T15:03:52.967Z,1.58
2023-03-07T15:06:24.220Z,2.08
2023-03-07T15:08:52.623Z,4.13
2023-03-07T15:11:35.950Z,2.33
2023-03-07T15:14:20.588Z,3.17
2023-03-07T15:16:51.945Z,1.77
2023-03-07T15:19:28.744Z,1.95
2023-03-07T15:21:58.840Z,2.05
2023-03-07T15:24:35.340Z,1.33
2023-03-07T15:27:04.657Z,1.90
2023-03-07T15:29:33.318Z,1.73
2023-03-07T15:32:07.465Z,2.30
2023-03-07T15:34:37.698Z,3.00
2023-03-07T15:37:27.058Z,3.55
2023-03-07T15:40:03.018Z,2.05
2023-03-07T15:42:31.214Z,1.98
2023-03-07T15:45:00.770Z,2.58
2023-03-07T15:47:30.692Z,4.28
2023-03-07T15:50:05.824Z,2.53
2023-03-07T15:52:36.575Z,2.47
2023-03-07T15:55:08.268Z,2.28
2023-03-07T15:57:49.513Z,2.85
2023-03-07T16:00:25.292Z,2.00
2023-03-07T16:02:54.198Z,5.18
2023-03-07T16:05:24.585Z,5.07
2023-03-07T16:07:54.591Z,2.72
2023-03-07T16:10:25.907Z,5.40
2023-03-07T16:12:53.805Z,3.80
2023-03-07T16:15:23.637Z,3.10
2023-03-07T16:17:55.163Z,2.90
2023-03-07T16:20:25.678Z,1.90
2023-03-07T16:22:53.877Z,3.65
2023-03-07T16:25:22.692Z,2.25
2023-03-07T16:27:53.063Z,3.30
2023-03-07T16:30:23.624Z,2.45
2023-03-07T16:32:51.728Z,4.53
2023-03-07T16:35:22.178Z,3.78
2023-03-07T16:37:50.282Z,2.63
2023-03-07T16:40:18.445Z,2.67
2023-03-07T16:42:47.854Z,6.47
2023-03-07T16:45:22.652Z,13.57
2023-03-07T16:48:02.429Z,8.30
2023-03-07T16:50:32.435Z,7.90
2023-03-07T16:53:00.524Z,8.10
2023-03-07T16:55:28.560Z,8.63
2023-03-07T16:57:59.865Z,9.43
2023-03-07T17:00:28.637Z,9.25
2023-03-07T17:02:59.825Z,8.38
2023-03-07T17:05:29.076Z,13.30
2023-03-07T17:07:58.101Z,7.82
2023-03-07T17:10:26.973Z,6.90
2023-03-07T17:12:56.904Z,7.97
2023-03-07T17:15:30.597Z,5.45
2023-03-07T17:18:02.240Z,6.70
2023-03-07T17:20:30.355Z,5.80
2023-03-07T17:22:59.249Z,7.97
2023-03-07T17:25:28.279Z,5.30
2023-03-07T17:28:02.806Z,10.32
2023-03-07T17:30:31.844Z,5.22
2023-03-07T17:33:01.125Z,6.75
2023-03-07T17:35:30.857Z,7.28
2023-03-07T17:37:58.885Z,8.88
2023-03-07T17:40:26.626Z,4.18
2023-03-07T17:42:55.217Z,6.45
2023-03-07T17:45:22.983Z,5.25
2023-03-07T17:47:52.223Z,4.45
2023-03-07T17:50:23.953Z,6.47
2023-03-07T17:52:53.401Z,4.75
2023-03-07T17:55:22.007Z,5.18
2023-03-07T17:57:49.684Z,6.38
2023-03-07T18:00:20.665Z,2.97
2023-03-07T18:02:49.295Z,5.70
2023-03-07T18:05:19.319Z,3.85
2023-03-07T18:07:47.325Z,4.15
2023-03-07T18:10:15.081Z,5.57
2023-03-07T18:12:42.763Z,6.40
2023-03-07T18:15:15.378Z,5.55
2023-03-07T18:17:48.689Z,4.28
2023-03-07T18:20:19.072Z,4.82
2023-03-07T18:22:46.909Z,4.40
2023-03-07T18:25:15.743Z,6.85
2023-03-07T18:27:44.393Z,7.60
2023-03-07T18:30:12.972Z,8.70
2023-03-07T18:32:41.213Z,3.80
2023-03-07T18:35:09.392Z,4.28
2023-03-07T18:37:37.220Z,4.10
2023-03-07T18:40:05.499Z,4.18
2023-03-07T18:42:33.977Z,3.65
2023-03-07T18:45:01.685Z,5.55
2023-03-07T18:47:29.569Z,3.53
2023-03-07T18:49:58.043Z,4.25
2023-03-07T18:52:25.876Z,4.30
2023-03-07T18:54:53.507Z,3.65
2023-03-07T18:57:21.428Z,3.60
2023-03-07T18:59:50.332Z,2.80
2023-03-07T19:02:18.165Z,4.85
2023-03-07T19:04:45.963Z,3.17
2023-03-07T19:07:13.622Z,2.97
2023-03-07T19:09:43.885Z,4.15
2023-03-07T19:12:12.168Z,3.15
2023-03-07T19:14:40.335Z,3.28
2023-03-07T19:17:08.047Z,3.47
2023-03-07T19:19:36.511Z,3.03
2023-03-07T19:22:04.323Z,3.50
2023-03-07T19:24:32.747Z,3.55
2023-03-07T19:27:00.530Z,3.92
2023-03-07T19:29:28.239Z,5.82
2023-03-07T19:31:56.089Z,3.53
